sensor_id;sensor_type;location;lat;lon;timestamp;P1;durP1;ratioP1;P2;durP2;ratioP2
12908;SDS011;6522;49.622;6.126;2022-07-23T00:02:38;21.53;;;19.60;;
12908;SDS011;6522;49.622;6.126;2022-07-23T00:05:25;19.90;;;18.20;;
12908;SDS011;6522;49.622;6.126;2022-07-23T00:08:11;19.70;;;18.00;;
12908;SDS011;6522;49.622;6.126;2022-07-23T00:10:58;20.67;;;18.77;;
12908;SDS011;6522;49.622;6.126;2022-07-23T00:13:45;20.47;;;18.70;;
12908;SDS011;6522;49.622;6.126;2022-07-23T00:16:32;19.20;;;17.40;;
12908;SDS011;6522;49.622;6.126;2022-07-23T00:19:18;19.33;;;17.52;;
12908;SDS011;6522;49.622;6.126;2022-07-23T00:22:05;18.03;;;16.40;;
12908;SDS011;6522;49.622;6.126;2022-07-23T00:24:52;16.73;;;14.93;;
12908;SDS011;6522;49.622;6.126;2022-07-23T00:27:39;15.80;;;14.20;;
12908;SDS011;6522;49.622;6.126;2022-07-23T00:30:25;16.80;;;15.20;;
12908;SDS011;6522;49.622;6.126;2022-07-23T00:33:12;15.85;;;14.15;;
12908;SDS011;6522;49.622;6.126;2022-07-23T00:35:59;16.58;;;14.60;;
12908;SDS011;6522;49.622;6.126;2022-07-23T00:38:45;16.33;;;14.73;;
12908;SDS011;6522;49.622;6.126;2022-07-23T00:41:32;15.80;;;14.20;;
12908;SDS011;6522;49.622;6.126;2022-07-23T00:44:22;16.02;;;14.25;;
12908;SDS011;6522;49.622;6.126;2022-07-23T00:47:08;16.30;;;14.70;;
12908;SDS011;6522;49.622;6.126;2022-07-23T00:49:55;15.20;;;13.10;;
12908;SDS011;6522;49.622;6.126;2022-07-23T00:52:42;20.23;;;18.42;;
12908;SDS011;6522;49.622;6.126;2022-07-23T00:55:29;21.33;;;19.57;;
12908;SDS011;6522;49.622;6.126;2022-07-23T00:58:16;21.15;;;19.25;;
12908;SDS011;6522;49.622;6.126;2022-07-23T01:01:03;21.55;;;19.65;;
12908;SDS011;6522;49.622;6.126;2022-07-23T01:03:50;21.93;;;20.10;;
12908;SDS011;6522;49.622;6.126;2022-07-23T01:06:37;22.70;;;20.73;;
12908;SDS011;6522;49.622;6.126;2022-07-23T01:09:23;22.80;;;20.60;;
12908;SDS011;6522;49.622;6.126;2022-07-23T01:12:10;22.83;;;20.92;;
12908;SDS011;6522;49.622;6.126;2022-07-23T01:14:57;25.07;;;22.57;;
12908;SDS011;6522;49.622;6.126;2022-07-23T01:17:44;21.77;;;19.77;;
12908;SDS011;6522;49.622;6.126;2022-07-23T01:20:31;23.20;;;21.00;;
12908;SDS011;6522;49.622;6.126;2022-07-23T01:23:18;23.67;;;21.27;;
12908;SDS011;6522;49.622;6.126;2022-07-23T01:26:04;21.57;;;19.47;;
12908;SDS011;6522;49.622;6.126;2022-07-23T01:28:51;22.60;;;20.50;;
12908;SDS011;6522;49.622;6.126;2022-07-23T01:31:38;20.20;;;18.30;;
12908;SDS011;6522;49.622;6.126;2022-07-23T01:34:25;21.55;;;19.35;;
12908;SDS011;6522;49.622;6.126;2022-07-23T01:37:11;21.37;;;19.40;;
12908;SDS011;6522;49.622;6.126;2022-07-23T01:39:58;21.87;;;19.75;;
12908;SDS011;6522;49.622;6.126;2022-07-23T01:42:45;21.83;;;19.90;;
12908;SDS011;6522;49.622;6.126;2022-07-23T01:45:32;21.40;;;19.10;;
12908;SDS011;6522;49.622;6.126;2022-07-23T01:48:19;19.87;;;17.85;;
12908;SDS011;6522;49.622;6.126;2022-07-23T01:51:05;18.97;;;17.17;;
12908;SDS011;6522;49.622;6.126;2022-07-23T01:53:52;21.02;;;18.50;;
12908;SDS011;6522;49.622;6.126;2022-07-23T01:56:39;18.60;;;16.62;;
12908;SDS011;6522;49.622;6.126;2022-07-23T01:59:26;18.00;;;16.20;;
12908;SDS011;6522;49.622;6.126;2022-07-23T02:02:12;19.15;;;17.25;;
12908;SDS011;6522;49.622;6.126;2022-07-23T02:04:59;18.98;;;16.98;;
12908;SDS011;6522;49.622;6.126;2022-07-23T02:07:45;18.57;;;16.77;;
12908;SDS011;6522;49.622;6.126;2022-07-23T02:10:32;21.65;;;16.23;;
12908;SDS011;6522;49.622;6.126;2022-07-23T02:13:19;18.10;;;16.20;;
12908;SDS011;6522;49.622;6.126;2022-07-23T02:16:06;19.97;;;17.97;;
12908;SDS011;6522;49.622;6.126;2022-07-23T02:18:53;18.80;;;16.80;;
12908;SDS011;6522;49.622;6.126;2022-07-23T02:21:40;20.17;;;17.17;;
12908;SDS011;6522;49.622;6.126;2022-07-23T02:24:27;18.37;;;16.40;;
12908;SDS011;6522;49.622;6.126;2022-07-23T02:27:14;18.80;;;16.73;;
12908;SDS011;6522;49.622;6.126;2022-07-23T02:30:00;24.27;;;17.73;;
12908;SDS011;6522;49.622;6.126;2022-07-23T02:32:47;19.37;;;17.40;;
12908;SDS011;6522;49.622;6.126;2022-07-23T02:35:34;21.75;;;17.98;;
12908;SDS011;6522;49.622;6.126;2022-07-23T02:38:21;20.10;;;17.70;;
12908;SDS011;6522;49.622;6.126;2022-07-23T02:41:07;18.33;;;16.53;;
12908;SDS011;6522;49.622;6.126;2022-07-23T02:43:54;20.48;;;17.12;;
12908;SDS011;6522;49.622;6.126;2022-07-23T02:46:40;20.85;;;18.23;;
12908;SDS011;6522;49.622;6.126;2022-07-23T02:49:27;18.93;;;17.03;;
12908;SDS011;6522;49.622;6.126;2022-07-23T02:52:14;19.73;;;17.62;;
12908;SDS011;6522;49.622;6.126;2022-07-23T02:55:00;18.30;;;16.10;;
12908;SDS011;6522;49.622;6.126;2022-07-23T02:57:47;20.33;;;16.65;;
12908;SDS011;6522;49.622;6.126;2022-07-23T03:00:34;19.45;;;17.37;;
12908;SDS011;6522;49.622;6.126;2022-07-23T03:03:21;23.23;;;16.87;;
12908;SDS011;6522;49.622;6.126;2022-07-23T03:06:08;19.23;;;17.12;;
12908;SDS011;6522;49.622;6.126;2022-07-23T03:08:55;20.45;;;18.25;;
12908;SDS011;6522;49.622;6.126;2022-07-23T03:11:42;19.40;;;17.40;;
12908;SDS011;6522;49.622;6.126;2022-07-23T03:14:29;20.42;;;17.75;;
12908;SDS011;6522;49.622;6.126;2022-07-23T03:17:15;25.50;;;17.45;;
12908;SDS011;6522;49.622;6.126;2022-07-23T03:20:02;19.93;;;17.83;;
12908;SDS011;6522;49.622;6.126;2022-07-23T03:22:48;23.53;;;17.70;;
12908;SDS011;6522;49.622;6.126;2022-07-23T03:25:35;21.40;;;18.75;;
12908;SDS011;6522;49.622;6.126;2022-07-23T03:28:22;22.03;;;18.67;;
12908;SDS011;6522;49.622;6.126;2022-07-23T03:31:09;21.37;;;17.92;;
12908;SDS011;6522;49.622;6.126;2022-07-23T03:33:55;22.63;;;18.40;;
12908;SDS011;6522;49.622;6.126;2022-07-23T03:36:42;22.80;;;18.10;;
12908;SDS011;6522;49.622;6.126;2022-07-23T03:39:29;21.92;;;18.23;;
12908;SDS011;6522;49.622;6.126;2022-07-23T03:42:16;24.07;;;19.60;;
12908;SDS011;6522;49.622;6.126;2022-07-23T03:45:03;22.17;;;18.40;;
12908;SDS011;6522;49.622;6.126;2022-07-23T03:47:49;19.92;;;17.33;;
12908;SDS011;6522;49.622;6.126;2022-07-23T03:50:36;24.37;;;18.20;;
12908;SDS011;6522;49.622;6.126;2022-07-23T03:53:23;23.23;;;17.60;;
12908;SDS011;6522;49.622;6.126;2022-07-23T03:56:09;23.50;;;19.00;;
12908;SDS011;6522;49.622;6.126;2022-07-23T03:58:56;25.92;;;19.65;;
12908;SDS011;6522;49.622;6.126;2022-07-23T04:01:43;21.60;;;18.37;;
12908;SDS011;6522;49.622;6.126;2022-07-23T04:04:30;25.40;;;19.58;;
12908;SDS011;6522;49.622;6.126;2022-07-23T04:07:17;24.10;;;18.20;;
12908;SDS011;6522;49.622;6.126;2022-07-23T04:10:06;23.30;;;18.15;;
12908;SDS011;6522;49.622;6.126;2022-07-23T04:12:53;20.95;;;17.15;;
12908;SDS011;6522;49.622;6.126;2022-07-23T04:15:40;22.25;;;18.95;;
12908;SDS011;6522;49.622;6.126;2022-07-23T04:18:26;23.83;;;18.10;;
12908;SDS011;6522;49.622;6.126;2022-07-23T04:21:13;22.30;;;16.75;;
12908;SDS011;6522;49.622;6.126;2022-07-23T04:24:00;26.25;;;19.00;;
12908;SDS011;6522;49.622;6.126;2022-07-23T04:26:46;24.65;;;18.12;;
12908;SDS011;6522;49.622;6.126;2022-07-23T04:29:33;23.55;;;18.62;;
12908;SDS011;6522;49.622;6.126;2022-07-23T04:32:20;26.12;;;19.80;;
12908;SDS011;6522;49.622;6.126;2022-07-23T04:35:07;25.85;;;19.00;;
12908;SDS011;6522;49.622;6.126;2022-07-23T04:37:54;25.77;;;19.15;;
12908;SDS011;6522;49.622;6.126;2022-07-23T04:40:40;22.85;;;18.33;;
12908;SDS011;6522;49.622;6.126;2022-07-23T04:43:28;24.55;;;18.87;;
12908;SDS011;6522;49.622;6.126;2022-07-23T04:46:14;23.00;;;18.00;;
12908;SDS011;6522;49.622;6.126;2022-07-23T04:49:01;24.55;;;19.30;;
12908;SDS011;6522;49.622;6.126;2022-07-23T04:51:48;23.58;;;18.33;;
12908;SDS011;6522;49.622;6.126;2022-07-23T04:54:35;22.90;;;17.95;;
12908;SDS011;6522;49.622;6.126;2022-07-23T04:57:22;25.55;;;19.95;;
12908;SDS011;6522;49.622;6.126;2022-07-23T05:00:09;26.40;;;18.95;;
12908;SDS011;6522;49.622;6.126;2022-07-23T05:02:55;24.98;;;18.00;;
12908;SDS011;6522;49.622;6.126;2022-07-23T05:05:42;23.10;;;18.27;;
12908;SDS011;6522;49.622;6.126;2022-07-23T05:08:29;25.45;;;17.95;;
12908;SDS011;6522;49.622;6.126;2022-07-23T05:11:15;23.25;;;19.17;;
12908;SDS011;6522;49.622;6.126;2022-07-23T05:14:02;28.65;;;20.08;;
12908;SDS011;6522;49.622;6.126;2022-07-23T05:16:49;24.80;;;18.95;;
12908;SDS011;6522;49.622;6.126;2022-07-23T05:19:36;26.48;;;19.62;;
12908;SDS011;6522;49.622;6.126;2022-07-23T05:22:23;22.95;;;19.23;;
12908;SDS011;6522;49.622;6.126;2022-07-23T05:25:09;22.98;;;18.62;;
12908;SDS011;6522;49.622;6.126;2022-07-23T05:27:56;25.40;;;20.20;;
12908;SDS011;6522;49.622;6.126;2022-07-23T05:30:42;24.75;;;19.90;;
12908;SDS011;6522;49.622;6.126;2022-07-23T05:33:29;25.30;;;19.77;;
12908;SDS011;6522;49.622;6.126;2022-07-23T05:36:16;25.80;;;20.27;;
12908;SDS011;6522;49.622;6.126;2022-07-23T05:39:03;24.25;;;19.35;;
12908;SDS011;6522;49.622;6.126;2022-07-23T05:41:49;25.48;;;20.58;;
12908;SDS011;6522;49.622;6.126;2022-07-23T05:44:36;25.90;;;20.62;;
12908;SDS011;6522;49.622;6.126;2022-07-23T05:47:23;25.53;;;20.13;;
12908;SDS011;6522;49.622;6.126;2022-07-23T05:50:10;28.10;;;20.50;;
12908;SDS011;6522;49.622;6.126;2022-07-23T05:52:56;28.33;;;21.00;;
12908;SDS011;6522;49.622;6.126;2022-07-23T05:55:43;27.30;;;20.57;;
12908;SDS011;6522;49.622;6.126;2022-07-23T05:58:29;22.33;;;18.30;;
12908;SDS011;6522;49.622;6.126;2022-07-23T06:01:16;20.88;;;18.67;;
12908;SDS011;6522;49.622;6.126;2022-07-23T06:04:03;27.98;;;19.83;;
12908;SDS011;6522;49.622;6.126;2022-07-23T06:06:50;29.43;;;19.70;;
12908;SDS011;6522;49.622;6.126;2022-07-23T06:09:36;25.63;;;20.47;;
12908;SDS011;6522;49.622;6.126;2022-07-23T06:12:23;26.73;;;19.40;;
12908;SDS011;6522;49.622;6.126;2022-07-23T06:15:10;23.87;;;19.35;;
12908;SDS011;6522;49.622;6.126;2022-07-23T06:17:56;24.67;;;19.90;;
12908;SDS011;6522;49.622;6.126;2022-07-23T06:20:43;24.40;;;20.33;;
12908;SDS011;6522;49.622;6.126;2022-07-23T06:23:29;23.27;;;19.75;;
12908;SDS011;6522;49.622;6.126;2022-07-23T06:26:16;23.93;;;21.50;;
12908;SDS011;6522;49.622;6.126;2022-07-23T06:29:03;22.40;;;20.17;;
12908;SDS011;6522;49.622;6.126;2022-07-23T06:31:50;23.58;;;21.17;;
12908;SDS011;6522;49.622;6.126;2022-07-23T06:34:37;24.13;;;21.23;;
12908;SDS011;6522;49.622;6.126;2022-07-23T06:37:23;23.03;;;20.63;;
12908;SDS011;6522;49.622;6.126;2022-07-23T06:40:10;22.58;;;20.27;;
12908;SDS011;6522;49.622;6.126;2022-07-23T06:42:57;24.10;;;22.10;;
12908;SDS011;6522;49.622;6.126;2022-07-23T06:45:44;23.93;;;21.40;;
12908;SDS011;6522;49.622;6.126;2022-07-23T06:48:31;23.12;;;20.77;;
12908;SDS011;6522;49.622;6.126;2022-07-23T06:51:18;25.07;;;22.50;;
12908;SDS011;6522;49.622;6.126;2022-07-23T06:54:05;24.90;;;22.40;;
12908;SDS011;6522;49.622;6.126;2022-07-23T06:56:51;24.05;;;21.65;;
12908;SDS011;6522;49.622;6.126;2022-07-23T06:59:38;23.77;;;21.70;;
12908;SDS011;6522;49.622;6.126;2022-07-23T07:02:25;23.98;;;21.58;;
12908;SDS011;6522;49.622;6.126;2022-07-23T07:05:12;22.33;;;20.23;;
12908;SDS011;6522;49.622;6.126;2022-07-23T07:07:59;25.53;;;23.33;;
12908;SDS011;6522;49.622;6.126;2022-07-23T07:10:46;22.20;;;19.92;;
12908;SDS011;6522;49.622;6.126;2022-07-23T07:13:32;24.30;;;22.20;;
12908;SDS011;6522;49.622;6.126;2022-07-23T07:16:19;23.50;;;21.30;;
12908;SDS011;6522;49.622;6.126;2022-07-23T07:19:06;22.13;;;19.83;;
12908;SDS011;6522;49.622;6.126;2022-07-23T07:21:53;22.30;;;20.20;;
12908;SDS011;6522;49.622;6.126;2022-07-23T07:24:39;23.80;;;21.70;;
12908;SDS011;6522;49.622;6.126;2022-07-23T07:27:26;23.30;;;21.20;;
12908;SDS011;6522;49.622;6.126;2022-07-23T07:30:13;25.60;;;23.43;;
12908;SDS011;6522;49.622;6.126;2022-07-23T07:32:59;23.50;;;21.67;;
12908;SDS011;6522;49.622;6.126;2022-07-23T07:35:46;22.83;;;20.62;;
12908;SDS011;6522;49.622;6.126;2022-07-23T07:38:33;23.47;;;21.67;;
12908;SDS011;6522;49.622;6.126;2022-07-23T07:41:20;25.87;;;23.67;;
12908;SDS011;6522;49.622;6.126;2022-07-23T07:44:07;23.40;;;21.50;;
12908;SDS011;6522;49.622;6.126;2022-07-23T07:46:53;22.87;;;21.00;;
12908;SDS011;6522;49.622;6.126;2022-07-23T07:49:41;24.00;;;22.20;;
12908;SDS011;6522;49.622;6.126;2022-07-23T07:52:27;23.83;;;21.77;;
12908;SDS011;6522;49.622;6.126;2022-07-23T07:55:14;24.17;;;22.17;;
12908;SDS011;6522;49.622;6.126;2022-07-23T07:58:01;23.60;;;22.00;;
12908;SDS011;6522;49.622;6.126;2022-07-23T08:00:48;23.13;;;21.40;;
12908;SDS011;6522;49.622;6.126;2022-07-23T08:03:34;23.63;;;21.63;;
12908;SDS011;6522;49.622;6.126;2022-07-23T08:06:22;22.67;;;21.00;;
12908;SDS011;6522;49.622;6.126;2022-07-23T08:09:08;22.90;;;21.23;;
12908;SDS011;6522;49.622;6.126;2022-07-23T08:11:54;23.30;;;21.60;;
12908;SDS011;6522;49.622;6.126;2022-07-23T08:14:41;23.07;;;21.17;;
12908;SDS011;6522;49.622;6.126;2022-07-23T08:17:28;23.53;;;21.70;;
12908;SDS011;6522;49.622;6.126;2022-07-23T08:20:16;22.08;;;20.48;;
12908;SDS011;6522;49.622;6.126;2022-07-23T08:23:07;24.50;;;22.53;;
12908;SDS011;6522;49.622;6.126;2022-07-23T08:25:51;25.43;;;23.70;;
12908;SDS011;6522;49.622;6.126;2022-07-23T08:28:38;25.70;;;23.40;;
12908;SDS011;6522;49.622;6.126;2022-07-23T08:31:24;25.47;;;23.30;;
12908;SDS011;6522;49.622;6.126;2022-07-23T08:34:11;24.30;;;22.50;;
12908;SDS011;6522;49.622;6.126;2022-07-23T08:36:57;24.77;;;22.87;;
12908;SDS011;6522;49.622;6.126;2022-07-23T08:39:44;25.97;;;23.67;;
12908;SDS011;6522;49.622;6.126;2022-07-23T08:42:31;24.93;;;23.20;;
12908;SDS011;6522;49.622;6.126;2022-07-23T08:45:18;24.37;;;22.67;;
12908;SDS011;6522;49.622;6.126;2022-07-23T08:48:04;25.10;;;23.23;;
12908;SDS011;6522;49.622;6.126;2022-07-23T08:50:52;26.90;;;25.00;;
12908;SDS011;6522;49.622;6.126;2022-07-23T08:53:37;25.67;;;23.87;;
12908;SDS011;6522;49.622;6.126;2022-07-23T08:56:24;26.50;;;24.50;;
12908;SDS011;6522;49.622;6.126;2022-07-23T08:59:11;28.03;;;25.93;;
12908;SDS011;6522;49.622;6.126;2022-07-23T09:01:58;25.47;;;23.60;;
12908;SDS011;6522;49.622;6.126;2022-07-23T09:04:44;26.53;;;24.43;;
12908;SDS011;6522;49.622;6.126;2022-07-23T09:07:31;26.60;;;24.73;;
12908;SDS011;6522;49.622;6.126;2022-07-23T09:10:17;26.57;;;24.77;;
12908;SDS011;6522;49.622;6.126;2022-07-23T09:13:04;26.03;;;24.10;;
12908;SDS011;6522;49.622;6.126;2022-07-23T09:15:51;25.90;;;24.00;;
12908;SDS011;6522;49.622;6.126;2022-07-23T09:18:39;24.65;;;23.05;;
12908;SDS011;6522;49.622;6.126;2022-07-23T09:21:29;26.03;;;24.40;;
12908;SDS011;6522;49.622;6.126;2022-07-23T09:24:14;27.00;;;24.83;;
12908;SDS011;6522;49.622;6.126;2022-07-23T09:27:01;26.80;;;25.10;;
12908;SDS011;6522;49.622;6.126;2022-07-23T09:29:55;27.33;;;25.17;;
12908;SDS011;6522;49.622;6.126;2022-07-23T09:32:34;27.00;;;25.07;;
12908;SDS011;6522;49.622;6.126;2022-07-23T09:35:21;26.67;;;24.77;;
12908;SDS011;6522;49.622;6.126;2022-07-23T09:38:08;26.70;;;24.87;;
12908;SDS011;6522;49.622;6.126;2022-07-23T09:41:10;26.43;;;24.73;;
12908;SDS011;6522;49.622;6.126;2022-07-23T09:43:57;25.90;;;24.20;;
12908;SDS011;6522;49.622;6.126;2022-07-23T09:46:48;26.40;;;24.53;;
12908;SDS011;6522;49.622;6.126;2022-07-23T09:49:34;26.27;;;24.57;;
12908;SDS011;6522;49.622;6.126;2022-07-23T09:52:25;27.90;;;26.10;;
12908;SDS011;6522;49.622;6.126;2022-07-23T09:55:08;26.13;;;24.43;;
12908;SDS011;6522;49.622;6.126;2022-07-23T09:57:55;26.03;;;24.57;;
12908;SDS011;6522;49.622;6.126;2022-07-23T10:00:41;25.03;;;23.47;;
12908;SDS011;6522;49.622;6.126;2022-07-23T10:03:28;26.60;;;24.67;;
12908;SDS011;6522;49.622;6.126;2022-07-23T10:06:14;28.90;;;27.00;;
12908;SDS011;6522;49.622;6.126;2022-07-23T10:09:01;28.80;;;26.47;;
12908;SDS011;6522;49.622;6.126;2022-07-23T10:11:48;26.57;;;24.80;;
12908;SDS011;6522;49.622;6.126;2022-07-23T10:14:36;28.00;;;25.90;;
12908;SDS011;6522;49.622;6.126;2022-07-23T10:17:22;27.50;;;25.70;;
12908;SDS011;6522;49.622;6.126;2022-07-23T10:20:09;24.97;;;23.50;;
12908;SDS011;6522;49.622;6.126;2022-07-23T10:23:10;27.20;;;25.57;;
12908;SDS011;6522;49.622;6.126;2022-07-23T10:25:58;26.30;;;24.70;;
12908;SDS011;6522;49.622;6.126;2022-07-23T10:28:44;27.33;;;25.53;;
12908;SDS011;6522;49.622;6.126;2022-07-23T10:37:42;25.23;;;23.47;;
12908;SDS011;6522;49.622;6.126;2022-07-23T10:40:14;25.67;;;24.00;;
12908;SDS011;6522;49.622;6.126;2022-07-23T10:42:59;26.17;;;24.37;;
12908;SDS011;6522;49.622;6.126;2022-07-23T10:45:46;24.50;;;23.07;;
12908;SDS011;6522;49.622;6.126;2022-07-23T10:48:33;25.67;;;23.93;;
12908;SDS011;6522;49.622;6.126;2022-07-23T10:51:19;26.33;;;24.03;;
12908;SDS011;6522;49.622;6.126;2022-07-23T10:54:06;25.60;;;23.90;;
12908;SDS011;6522;49.622;6.126;2022-07-23T11:03:03;27.00;;;25.30;;
12908;SDS011;6522;49.622;6.126;2022-07-23T11:05:46;27.07;;;25.00;;
12908;SDS011;6522;49.622;6.126;2022-07-23T11:08:33;25.37;;;23.83;;
12908;SDS011;6522;49.622;6.126;2022-07-23T11:11:20;27.37;;;25.60;;
12908;SDS011;6522;49.622;6.126;2022-07-23T11:14:06;24.97;;;23.50;;
12908;SDS011;6522;49.622;6.126;2022-07-23T11:16:53;26.00;;;24.20;;
12908;SDS011;6522;49.622;6.126;2022-07-23T11:22:47;26.20;;;24.40;;
12908;SDS011;6522;49.622;6.126;2022-07-23T11:25:34;24.87;;;23.27;;
12908;SDS011;6522;49.622;6.126;2022-07-23T11:28:19;25.00;;;23.60;;
12908;SDS011;6522;49.622;6.126;2022-07-23T11:31:16;25.30;;;23.70;;
12908;SDS011;6522;49.622;6.126;2022-07-23T11:34:24;25.90;;;24.37;;
12908;SDS011;6522;49.622;6.126;2022-07-23T11:36:49;22.87;;;21.27;;
12908;SDS011;6522;49.622;6.126;2022-07-23T11:39:35;25.57;;;24.00;;
12908;SDS011;6522;49.622;6.126;2022-07-23T11:42:21;27.43;;;25.63;;
12908;SDS011;6522;49.622;6.126;2022-07-23T11:45:08;26.10;;;24.30;;
12908;SDS011;6522;49.622;6.126;2022-07-23T11:47:54;25.33;;;23.80;;
12908;SDS011;6522;49.622;6.126;2022-07-23T11:50:41;24.73;;;23.30;;
12908;SDS011;6522;49.622;6.126;2022-07-23T11:53:29;27.07;;;25.23;;
12908;SDS011;6522;49.622;6.126;2022-07-23T11:56:15;26.27;;;24.57;;
12908;SDS011;6522;49.622;6.126;2022-07-23T11:59:01;25.37;;;23.77;;
12908;SDS011;6522;49.622;6.126;2022-07-23T12:01:58;26.50;;;24.50;;
12908;SDS011;6522;49.622;6.126;2022-07-23T12:04:44;26.43;;;24.83;;
12908;SDS011;6522;49.622;6.126;2022-07-23T12:07:34;24.40;;;22.80;;
12908;SDS011;6522;49.622;6.126;2022-07-23T12:10:24;27.30;;;25.50;;
12908;SDS011;6522;49.622;6.126;2022-07-23T12:13:11;27.70;;;25.90;;
12908;SDS011;6522;49.622;6.126;2022-07-23T12:15:57;24.42;;;22.73;;
12908;SDS011;6522;49.622;6.126;2022-07-23T12:18:43;27.00;;;25.30;;
12908;SDS011;6522;49.622;6.126;2022-07-23T12:21:30;24.30;;;22.80;;
12908;SDS011;6522;49.622;6.126;2022-07-23T12:24:17;26.80;;;25.10;;
12908;SDS011;6522;49.622;6.126;2022-07-23T12:27:12;26.73;;;25.13;;
12908;SDS011;6522;49.622;6.126;2022-07-23T12:29:56;27.57;;;25.67;;
12908;SDS011;6522;49.622;6.126;2022-07-23T12:32:46;24.93;;;23.53;;
12908;SDS011;6522;49.622;6.126;2022-07-23T12:35:37;23.98;;;22.37;;
12908;SDS011;6522;49.622;6.126;2022-07-23T12:38:23;25.77;;;24.17;;
12908;SDS011;6522;49.622;6.126;2022-07-23T12:41:09;26.30;;;24.47;;
12908;SDS011;6522;49.622;6.126;2022-07-23T12:43:56;26.40;;;24.70;;
12908;SDS011;6522;49.622;6.126;2022-07-23T12:46:43;26.40;;;24.80;;
12908;SDS011;6522;49.622;6.126;2022-07-23T12:49:29;25.90;;;24.30;;
12908;SDS011;6522;49.622;6.126;2022-07-23T12:52:16;25.10;;;23.67;;
12908;SDS011;6522;49.622;6.126;2022-07-23T12:55:02;21.67;;;20.37;;
12908;SDS011;6522;49.622;6.126;2022-07-23T12:57:49;24.97;;;23.40;;
12908;SDS011;6522;49.622;6.126;2022-07-23T13:03:40;26.40;;;24.70;;
12908;SDS011;6522;49.622;6.126;2022-07-23T13:06:24;25.13;;;23.63;;
12908;SDS011;6522;49.622;6.126;2022-07-23T13:09:14;25.60;;;23.83;;
12908;SDS011;6522;49.622;6.126;2022-07-23T13:11:57;22.52;;;20.90;;
12908;SDS011;6522;49.622;6.126;2022-07-23T13:14:44;23.17;;;21.58;;
12908;SDS011;6522;49.622;6.126;2022-07-23T13:17:30;25.57;;;23.87;;
12908;SDS011;6522;49.622;6.126;2022-07-23T13:20:17;24.90;;;23.40;;
12908;SDS011;6522;49.622;6.126;2022-07-23T13:23:05;25.53;;;23.93;;
12908;SDS011;6522;49.622;6.126;2022-07-23T13:25:51;24.93;;;23.47;;
12908;SDS011;6522;49.622;6.126;2022-07-23T13:28:37;25.50;;;23.90;;
12908;SDS011;6522;49.622;6.126;2022-07-23T13:31:24;25.90;;;24.13;;
12908;SDS011;6522;49.622;6.126;2022-07-23T13:34:11;25.60;;;24.00;;
12908;SDS011;6522;49.622;6.126;2022-07-23T13:36:57;24.87;;;23.47;;
12908;SDS011;6522;49.622;6.126;2022-07-23T13:39:44;27.30;;;25.50;;
12908;SDS011;6522;49.622;6.126;2022-07-23T13:42:30;25.83;;;24.33;;
12908;SDS011;6522;49.622;6.126;2022-07-23T13:45:17;26.17;;;24.50;;
12908;SDS011;6522;49.622;6.126;2022-07-23T13:48:04;25.50;;;24.00;;
12908;SDS011;6522;49.622;6.126;2022-07-23T13:50:51;24.83;;;23.20;;
12908;SDS011;6522;49.622;6.126;2022-07-23T13:53:37;26.63;;;24.90;;
12908;SDS011;6522;49.622;6.126;2022-07-23T13:56:24;24.93;;;23.20;;
12908;SDS011;6522;49.622;6.126;2022-07-23T13:59:10;26.43;;;24.43;;
12908;SDS011;6522;49.622;6.126;2022-07-23T14:01:57;25.00;;;23.50;;
12908;SDS011;6522;49.622;6.126;2022-07-23T14:04:44;25.40;;;23.90;;
12908;SDS011;6522;49.622;6.126;2022-07-23T14:07:30;26.57;;;24.53;;
12908;SDS011;6522;49.622;6.126;2022-07-23T14:10:18;26.27;;;24.37;;
12908;SDS011;6522;49.622;6.126;2022-07-23T14:13:04;24.70;;;23.10;;
12908;SDS011;6522;49.622;6.126;2022-07-23T14:15:51;25.00;;;23.40;;
12908;SDS011;6522;49.622;6.126;2022-07-23T14:18:38;25.77;;;24.27;;
12908;SDS011;6522;49.622;6.126;2022-07-23T14:21:24;24.37;;;22.90;;
12908;SDS011;6522;49.622;6.126;2022-07-23T14:24:11;25.10;;;23.50;;
12908;SDS011;6522;49.622;6.126;2022-07-23T14:26:59;25.30;;;23.80;;
12908;SDS011;6522;49.622;6.126;2022-07-23T14:29:44;25.50;;;23.90;;
12908;SDS011;6522;49.622;6.126;2022-07-23T14:32:31;24.03;;;22.63;;
12908;SDS011;6522;49.622;6.126;2022-07-23T14:35:18;24.83;;;23.33;;
12908;SDS011;6522;49.622;6.126;2022-07-23T14:38:05;27.20;;;25.40;;
12908;SDS011;6522;49.622;6.126;2022-07-23T14:40:51;26.20;;;24.50;;
12908;SDS011;6522;49.622;6.126;2022-07-23T14:43:37;24.02;;;22.42;;
12908;SDS011;6522;49.622;6.126;2022-07-23T14:46:25;25.77;;;24.20;;
12908;SDS011;6522;49.622;6.126;2022-07-23T14:49:11;26.90;;;25.23;;
12908;SDS011;6522;49.622;6.126;2022-07-23T14:51:58;25.20;;;23.70;;
12908;SDS011;6522;49.622;6.126;2022-07-23T14:54:45;25.43;;;23.80;;
12908;SDS011;6522;49.622;6.126;2022-07-23T14:57:32;25.37;;;23.97;;
12908;SDS011;6522;49.622;6.126;2022-07-23T15:00:19;24.60;;;23.10;;
12908;SDS011;6522;49.622;6.126;2022-07-23T15:03:05;25.00;;;23.50;;
12908;SDS011;6522;49.622;6.126;2022-07-23T15:05:52;24.10;;;22.80;;
12908;SDS011;6522;49.622;6.126;2022-07-23T15:08:39;24.00;;;22.60;;
12908;SDS011;6522;49.622;6.126;2022-07-23T15:11:27;24.47;;;23.07;;
12908;SDS011;6522;49.622;6.126;2022-07-23T15:14:13;24.00;;;22.50;;
12908;SDS011;6522;49.622;6.126;2022-07-23T15:17:00;23.83;;;22.23;;
12908;SDS011;6522;49.622;6.126;2022-07-23T15:19:46;23.93;;;22.53;;
12908;SDS011;6522;49.622;6.126;2022-07-23T15:22:33;24.93;;;23.30;;
12908;SDS011;6522;49.622;6.126;2022-07-23T15:25:20;24.13;;;22.73;;
12908;SDS011;6522;49.622;6.126;2022-07-23T15:28:06;23.80;;;22.50;;
12908;SDS011;6522;49.622;6.126;2022-07-23T15:30:53;23.53;;;22.20;;
12908;SDS011;6522;49.622;6.126;2022-07-23T15:33:40;22.42;;;20.92;;
12908;SDS011;6522;49.622;6.126;2022-07-23T15:36:27;24.40;;;22.90;;
12908;SDS011;6522;49.622;6.126;2022-07-23T15:39:13;24.83;;;23.33;;
12908;SDS011;6522;49.622;6.126;2022-07-23T15:42:00;24.80;;;23.30;;
12908;SDS011;6522;49.622;6.126;2022-07-23T15:44:47;24.37;;;22.87;;
12908;SDS011;6522;49.622;6.126;2022-07-23T15:47:33;23.90;;;22.60;;
12908;SDS011;6522;49.622;6.126;2022-07-23T15:50:20;25.43;;;23.90;;
12908;SDS011;6522;49.622;6.126;2022-07-23T15:53:06;23.93;;;22.53;;
12908;SDS011;6522;49.622;6.126;2022-07-23T15:55:53;24.33;;;22.80;;
12908;SDS011;6522;49.622;6.126;2022-07-23T15:58:40;24.17;;;22.67;;
12908;SDS011;6522;49.622;6.126;2022-07-23T16:01:27;24.70;;;23.10;;
12908;SDS011;6522;49.622;6.126;2022-07-23T16:04:13;24.00;;;22.70;;
12908;SDS011;6522;49.622;6.126;2022-07-23T16:07:00;23.97;;;22.57;;
12908;SDS011;6522;49.622;6.126;2022-07-23T16:09:47;24.40;;;22.90;;
12908;SDS011;6522;49.622;6.126;2022-07-23T16:12:34;23.40;;;22.10;;
12908;SDS011;6522;49.622;6.126;2022-07-23T16:15:21;24.67;;;23.07;;
12908;SDS011;6522;49.622;6.126;2022-07-23T16:18:08;23.60;;;22.30;;
12908;SDS011;6522;49.622;6.126;2022-07-23T16:20:54;24.00;;;22.40;;
12908;SDS011;6522;49.622;6.126;2022-07-23T16:23:41;23.90;;;22.60;;
12908;SDS011;6522;49.622;6.126;2022-07-23T16:26:28;24.20;;;22.80;;
12908;SDS011;6522;49.622;6.126;2022-07-23T16:29:15;24.20;;;22.20;;
12908;SDS011;6522;49.622;6.126;2022-07-23T16:32:02;23.00;;;21.80;;
12908;SDS011;6522;49.622;6.126;2022-07-23T16:34:48;21.97;;;20.87;;
12908;SDS011;6522;49.622;6.126;2022-07-23T16:37:35;23.00;;;21.60;;
12908;SDS011;6522;49.622;6.126;2022-07-23T16:40:22;23.80;;;22.30;;
12908;SDS011;6522;49.622;6.126;2022-07-23T16:43:09;20.92;;;19.62;;
12908;SDS011;6522;49.622;6.126;2022-07-23T16:45:55;22.30;;;21.20;;
12908;SDS011;6522;49.622;6.126;2022-07-23T16:48:42;23.83;;;22.53;;